Flight Track Log - Related Links

Times and Time Zones

All times are in EDT time to prevent confusion due to time zone crossing. See the N310ME flight status page for this flight to view local times or setup timezone preferences in your user account.

Time Position Orientation Groundspeed Altitude Reporting Facility
EDT Latitude Longitude Course Direction KTS MPH feet Rate Location/Type
Mon 01:27:18 PM 39.7116 -86.4489 162° South  Level FlightAware Approximate
Mon 01:28:35 PM 39.6333 -86.4167 259° West 227 261 6,000  Level Indianapolis TRACON
Mon 01:29:41 PM 39.6200 -86.5086 258° West 252 290 8,800 2,524 Climbing Indianapolis Center
Mon 01:30:41 PM 39.6053 -86.5997 260° West 262 302 11,300 2,300 Climbing Indianapolis Center
Mon 01:31:41 PM 39.5897 -86.7122 260° West 299 344 13,400 3,150 Climbing Indianapolis Center
Mon 01:32:41 PM 39.5742 -86.8244 262° West 312 359 17,600 3,500 Climbing Indianapolis Center
Mon 01:33:41 PM 39.5631 -86.9264 261° West 307 353 20,400 2,500 Climbing Indianapolis Center
Mon 01:34:41 PM 39.5494 -87.0389 261° West 302 348 22,600 2,150 Climbing Indianapolis Center
Mon 01:35:41 PM 39.5356 -87.1511 261° West 317 365 24,700 2,050 Climbing Indianapolis Center
Mon 01:36:41 PM 39.5217 -87.2689 261° West 329 379 26,700 1,850 Climbing Indianapolis Center
Mon 01:37:41 PM 39.5072 -87.3919 259° West 335 386 28,400 1,100 Climbing Indianapolis Center
Mon 01:38:41 PM 39.4883 -87.5203 261° West 354 407 28,900 750 Climbing Indianapolis Center
Mon 01:39:41 PM 39.4711 -87.6564 263° West 382 440 29,900 1,922 Climbing Indianapolis Center
Mon 01:41:14 PM 39.4525 -87.8553 261° West 389 448 33,800 1,608 Climbing Kansas City Center
Mon 01:42:14 PM 39.4364 -87.9803 262° West 364 419 34,000 100 Climbing Kansas City Center
Mon 01:43:14 PM 39.4208 -88.1161 260° West 364 419 34,000  Level Kansas City Center
Mon 01:44:14 PM 39.4011 -88.2550 260° West 378 435 34,000 -50 Level Kansas City Center
Mon 01:45:14 PM 39.3831 -88.3908 260° West 389 448 33,900 -800 Descending Kansas City Center
Mon 01:46:14 PM 39.3633 -88.5350 261° West 395 455 32,400 -1,550 Descending Kansas City Center
Mon 01:47:14 PM 39.3472 -88.6731 260° West 400 460 30,800 -1,200 Descending Kansas City Center
Mon 01:48:14 PM 39.3269 -88.8169 260° West 405 466 30,000 -400 Descending Kansas City Center
Mon 01:49:14 PM 39.3083 -88.9528 260° West 398 458 30,000  Level Kansas City Center
Mon 01:50:14 PM 39.2897 -89.0936 260° West 392 451 30,000  Level Kansas City Center
Mon 01:51:14 PM 39.2692 -89.2372 260° West 400 460 30,000 -300 Level Kansas City Center
Mon 01:52:14 PM 39.2503 -89.3781 260° West 411 473 29,400 -1,050 Descending Kansas City Center
Mon 01:53:14 PM 39.2328 -89.5081 260° West 411 473 27,900 -1,700 Descending Kansas City Center
Mon 01:54:14 PM 39.2100 -89.6675 260° West 417 480 26,000 -1,750 Descending Kansas City Center
Mon 01:55:14 PM 39.1906 -89.8028 260° West 427 491 24,400 -1,650 Descending Kansas City Center
Mon 01:56:14 PM 39.1692 -89.9542 259° West 432 497 22,700 -1,700 Descending Kansas City Center
Mon 01:57:14 PM 39.1442 -90.1164 260° West 426 490 21,000 -1,339 Descending Kansas City Center
Mon 01:58:15 PM 39.1258 -90.2486 259° West 426 490 20,000 -1,250 Descending Kansas City Center
Mon 01:59:14 PM 39.1039 -90.3944 260° West 399 459 18,500 -1,714 Descending Kansas City Center
Mon 02:00:14 PM 39.0869 -90.5131 259° West 393 452 16,600 -1,250 Descending Kansas City Center
Mon 02:01:14 PM 39.0647 -90.6614 258° West 388 447 16,000 -300 Descending Kansas City Center
Mon 02:02:14 PM 39.0456 -90.7744 260° West 376 433 16,000  Level Kansas City Center
Mon 02:03:14 PM 39.0250 -90.9228 259° West 376 433 16,000  Level Kansas City Center
Mon 02:04:14 PM 39.0039 -91.0600 259° West 382 440 16,000  Level Kansas City Center
Mon 02:05:15 PM 38.9828 -91.1972 244° Southwest 392 451 16,000 -333 Level Kansas City Center
Mon 02:06:02 PM 38.9661 -91.2414 258° West 369 425 15,400 -897 Descending FAA TRACON SMA TRACON (SMA)
Mon 02:06:42 PM 38.9525 -91.3214 266° West 328 377 14,700 -1,167 Descending FAA TRACON SMA TRACON (SMA)
Mon 02:07:14 PM 38.9472 -91.4231 259° West 342 394 14,000 -1,435 Descending Kansas City Center
Mon 02:08:14 PM 38.9311 -91.5278 258° West 305 351 12,500 -1,600 Descending Kansas City Center
Mon 02:09:14 PM 38.9147 -91.6272 258° West 288 331 10,800 -1,650 Descending Kansas City Center
Mon 02:10:14 PM 38.8983 -91.7239 259° West 283 326 9,200 -1,850 Descending Kansas City Center
Mon 02:11:14 PM 38.8856 -91.8069 257° West 250 288 7,100 -2,300 Descending Kansas City Center
Mon 02:12:14 PM 38.8708 -91.8875 261° West 243 280 4,600 -2,050 Descending Kansas City Center
Mon 02:13:14 PM 38.8600 -91.9706 258° West 243 280 3,000 -800 Descending Kansas City Center
Mon 02:14:14 PM 38.8489 -92.0375 279° West 224 258 3,000  Level Kansas City Center
Mon 02:15:14 PM 38.8564 -92.0961 281° West 193 222 3,000 -300 Level Kansas City Center
Mon 02:16:14 PM 38.8658 -92.1597 250° West 180 207 2,400 -750 Descending Kansas City Center
Mon 02:17:14 PM 38.8542 -92.2000 199° South 156 180 1,500 -750 Descending Kansas City Center
Mon 02:18:14 PM 38.8211 -92.2144 250° West 125 144 900 3,250 Descending Kansas City Center
Mon 02:19:14 PM 38.8056 -92.2681 238° Southwest 125 144 8,000 3,550 Climbing Kansas City Center
Mon 02:20:14 PM 38.7853 -92.3089 238° Southwest 125 144 8,000  Level Kansas City Center
Mon 02:21:14 PM 38.7653 -92.3492 238° Southwest 125 144 8,000  Level Kansas City Center
Mon 02:22:14 PM 38.7492 -92.3817 238° Southwest 125 144 8,000  Level Kansas City Center

Login

Don't have an account? Register now (free) for customized features, flight alerts, and more!